Time;durP1;ratioP1;P1;durP2;ratioP2;P2;SDS_P1;SDS_P2;PMS_P1;PMS_P2;Temp;Humidity;BMP_temperature;BMP_pressure;BME280_temperature;BME280_humidity;BME280_pressure;Samples;Min_cycle;Max_cycle;Signal;HPM_P1;HPM_P2
2022/06/11 00:01:16;;;;;;;5.10;2.92;;;14.10;99.90;;;;;;5020880;28;20435;-77
2022/06/11 00:03:43;;;;;;;4.47;2.75;;;14.20;99.90;;;;;;5004874;28;20022;-78
2022/06/11 00:06:10;;;;;;;4.88;2.45;;;14.00;99.90;;;;;;5028096;28;20499;-77
2022/06/11 00:08:38;;;;;;;3.85;2.80;;;13.70;99.90;;;;;;4996679;28;20033;-76
2022/06/11 00:11:05;;;;;;;3.38;2.83;;;13.80;99.90;;;;;;5027062;28;20026;-76
2022/06/11 00:13:31;;;;;;;4.18;3.08;;;13.70;99.90;;;;;;5008932;28;20033;-77
2022/06/11 00:15:57;;;;;;;4.57;3.10;;;13.60;99.90;;;;;;5028019;28;20030;-77
2022/06/11 00:18:24;;;;;;;4.07;3.20;;;13.70;99.90;;;;;;5027004;28;20550;-77
2022/06/11 00:20:50;;;;;;;5.00;2.80;;;13.60;99.90;;;;;;4995923;28;20022;-78
2022/06/11 00:23:16;;;;;;;6.13;3.00;;;13.60;99.90;;;;;;5027157;28;20429;-77
2022/06/11 00:25:41;;;;;;;3.08;2.78;;;13.60;99.90;;;;;;5026617;28;20021;-77
2022/06/11 00:28:08;;;;;;;3.20;2.90;;;13.80;99.90;;;;;;5026599;28;20029;-77
2022/06/11 00:30:34;;;;;;;3.42;2.47;;;13.90;99.90;;;;;;5019681;28;20029;-77
2022/06/11 00:33:00;;;;;;;3.72;2.80;;;13.80;99.90;;;;;;5021069;28;20108;-77
2022/06/11 00:35:29;;;;;;;3.20;2.80;;;13.70;99.90;;;;;;5009849;28;20032;-77
2022/06/11 00:37:55;;;;;;;3.55;2.72;;;13.70;99.90;;;;;;4996249;28;20041;-77
2022/06/11 00:40:23;;;;;;;3.92;2.75;;;13.60;99.90;;;;;;5025394;28;20025;-77
2022/06/11 00:42:49;;;;;;;3.65;2.63;;;13.70;99.90;;;;;;5009228;28;20112;-76
2022/06/11 00:45:53;;;;;;;4.57;2.72;;;14.00;99.90;;;;;;5020872;28;20491;-76
2022/06/11 00:48:24;;;;;;;3.08;2.78;;;13.90;99.90;;;;;;4921983;29;20040;-79
2022/06/11 00:50:59;;;;;;;4.30;2.90;;;13.80;99.90;;;;;;4946282;28;20064;-79
2022/06/11 00:53:38;;;;;;;6.65;3.40;;;13.70;99.90;;;;;;4999872;28;20029;-78
2022/06/11 00:56:07;;;;;;;3.05;2.80;;;13.90;99.90;;;;;;5003838;28;20056;-76
2022/06/11 00:58:45;;;;;;;3.08;2.78;;;14.20;99.90;;;;;;5005231;28;20033;-77
2022/06/11 01:01:13;;;;;;;3.78;2.85;;;14.10;99.90;;;;;;5008446;28;20097;-77
2022/06/11 01:03:43;;;;;;;3.45;2.63;;;14.30;99.90;;;;;;5013330;28;20045;-77
2022/06/11 01:06:33;;;;;;;5.45;3.10;;;14.30;99.90;;;;;;5008902;28;20026;-77
2022/06/11 01:09:02;;;;;;;5.50;2.92;;;14.20;99.90;;;;;;5008497;28;20026;-76
2022/06/11 01:12:07;;;;;;;3.40;3.00;;;14.20;99.90;;;;;;5022577;28;20025;-76
2022/06/11 01:14:45;;;;;;;3.90;2.95;;;14.20;99.90;;;;;;5002550;28;20029;-76
2022/06/11 01:17:40;;;;;;;3.10;2.80;;;14.40;99.90;;;;;;5016486;28;20025;-77
2022/06/11 01:20:19;;;;;;;4.05;3.10;;;14.20;99.90;;;;;;5001927;28;20025;-78
2022/06/11 01:23:19;;;;;;;3.88;3.10;;;13.80;99.90;;;;;;5004028;28;20025;-77
2022/06/11 01:25:54;;;;;;;4.57;3.50;;;13.40;99.90;;;;;;4989518;28;20134;-78
2022/06/11 01:28:40;;;;;;;4.28;2.90;;;13.40;99.90;;;;;;5012355;28;20061;-80
2022/06/11 01:31:25;;;;;;;6.70;3.00;;;13.50;99.90;;;;;;5011851;28;20118;-79
2022/06/11 01:34:16;;;;;;;4.07;3.00;;;13.40;99.90;;;;;;5021221;28;20447;-79
2022/06/11 01:36:45;;;;;;;3.60;3.30;;;13.40;99.90;;;;;;5016789;28;20112;-76
2022/06/11 01:39:28;;;;;;;4.75;3.58;;;13.10;99.90;;;;;;5004597;28;20064;-77
2022/06/11 01:42:01;;;;;;;3.75;3.22;;;12.80;99.90;;;;;;5007715;28;20026;-76
2022/06/11 01:44:32;;;;;;;4.00;3.20;;;12.80;99.90;;;;;;5012962;28;20030;-77
2022/06/11 01:46:58;;;;;;;4.00;3.60;;;13.10;99.90;;;;;;4984194;28;20018;-78
2022/06/11 01:49:24;;;;;;;3.58;3.28;;;12.60;99.90;;;;;;5025949;28;20420;-77
2022/06/11 01:52:10;;;;;;;4.38;3.72;;;12.30;99.90;;;;;;5021791;28;20025;-78
2022/06/11 01:54:39;;;;;;;;;;;11.90;99.90;;;;;;5021516;28;20025;-78
2022/06/11 01:57:39;;;;;;;5.30;3.20;;;12.00;99.90;;;;;;5022599;28;19959;-77
2022/06/11 02:00:28;;;;;;;4.63;3.33;;;12.30;99.90;;;;;;5012718;28;20033;-78
2022/06/11 02:03:18;;;;;;;4.70;3.28;;;12.40;99.90;;;;;;5002184;28;20064;-77
2022/06/11 02:06:25;;;;;;;5.70;3.85;;;12.30;99.90;;;;;;5019260;28;20400;-77
2022/06/11 02:08:56;;;;;;;3.65;3.25;;;12.10;99.90;;;;;;5002401;28;20022;-78
2022/06/11 02:11:31;;;;;;;6.70;3.53;;;12.20;99.90;;;;;;5001381;28;20037;-77
2022/06/11 02:14:29;;;;;;;4.75;3.75;;;12.30;99.90;;;;;;5029434;28;20029;-79
2022/06/11 02:17:08;;;;;;;5.50;3.75;;;12.20;99.90;;;;;;5002247;28;20032;-77
2022/06/11 02:19:41;;;;;;;4.72;3.25;;;12.00;99.90;;;;;;5005435;28;20034;-78
2022/06/11 02:22:14;;;;;;;6.20;3.42;;;12.20;99.90;;;;;;5005293;28;20493;-77
2022/06/11 02:24:49;;;;;;;4.93;3.70;;;12.30;99.90;;;;;;5016097;28;20472;-77
2022/06/11 02:27:19;;;;;;;7.40;3.70;;;12.50;99.90;;;;;;5001188;28;20448;-77
2022/06/11 02:29:46;;;;;;;3.85;3.40;;;12.40;99.90;;;;;;5019313;28;20049;-77
2022/06/11 02:32:15;;;;;;;5.22;3.80;;;12.50;99.90;;;;;;5008604;28;20072;-79
2022/06/11 02:34:45;;;;;;;5.03;3.90;;;12.40;99.90;;;;;;5026056;28;20074;-77
2022/06/11 02:37:34;;;;;;;5.18;3.85;;;12.40;99.90;;;;;;5012530;28;20030;-77
2022/06/11 02:40:08;;;;;;;5.00;4.00;;;12.40;99.90;;;;;;5027448;28;20034;-78
2022/06/11 02:42:34;;;;;;;5.80;4.30;;;12.30;99.90;;;;;;5005563;28;20108;-77
2022/06/11 02:44:59;;;;;;;5.60;3.95;;;11.90;99.90;;;;;;5017567;28;20087;-76
2022/06/11 02:47:25;;;;;;;5.40;4.50;;;12.10;99.90;;;;;;5019893;28;20018;-78
2022/06/11 02:49:51;;;;;;;7.00;5.05;;;11.60;99.90;;;;;;5000853;28;20029;-77
2022/06/11 02:52:20;;;;;;;6.25;4.70;;;11.50;99.90;;;;;;5024673;28;20036;-77
2022/06/11 02:54:47;;;;;;;6.18;4.50;;;11.70;99.90;;;;;;5020851;28;20037;-77
2022/06/11 02:57:15;;;;;;;5.30;4.80;;;11.40;99.90;;;;;;5023593;28;20072;-77
2022/06/11 02:59:42;;;;;;;5.55;4.82;;;11.60;99.90;;;;;;5028946;28;20026;-75
2022/06/11 03:02:08;;;;;;;7.90;5.10;;;11.50;99.90;;;;;;5010917;28;20104;-77
2022/06/11 03:04:34;;;;;;;6.20;5.35;;;11.30;99.90;;;;;;5023579;28;20550;-78
2022/06/11 03:07:01;;;;;;;5.78;4.85;;;11.30;99.90;;;;;;5024740;28;20068;-78
2022/06/11 03:09:29;;;;;;;6.28;4.82;;;11.50;99.90;;;;;;5011675;28;20040;-77
2022/06/11 03:11:56;;;;;;;7.40;5.28;;;11.30;99.90;;;;;;5015547;28;20426;-76
2022/06/11 03:14:21;;;;;;;6.43;5.25;;;11.30;99.90;;;;;;5030001;28;20025;-76
2022/06/11 03:16:47;;;;;;;5.05;4.22;;;11.30;99.90;;;;;;5008773;28;20028;-77
2022/06/11 03:19:13;;;;;;;4.97;4.30;;;11.50;99.90;;;;;;5021195;28;20435;-76
2022/06/11 03:21:40;;;;;;;4.22;3.83;;;11.60;99.90;;;;;;5021750;28;20499;-76
2022/06/11 03:24:07;;;;;;;6.22;4.10;;;11.70;99.90;;;;;;5010860;28;20384;-77
2022/06/11 03:26:33;;;;;;;5.00;4.05;;;11.80;99.90;;;;;;5015427;28;20498;-76
2022/06/11 03:28:59;;;;;;;4.30;3.90;;;11.80;99.90;;;;;;5028750;28;20084;-76
2022/06/11 03:31:24;;;;;;;5.65;3.72;;;12.00;99.90;;;;;;5014447;28;20033;-76
2022/06/11 03:33:50;;;;;;;6.47;3.80;;;12.30;99.90;;;;;;5020860;28;20021;-75
2022/06/11 03:36:17;;;;;;;5.15;3.50;;;12.40;99.90;;;;;;5022323;28;20542;-75
2022/06/11 03:38:44;;;;;;;4.40;3.80;;;12.60;99.90;;;;;;5010155;28;20038;-76
2022/06/11 03:41:10;;;;;;;4.47;3.30;;;12.50;99.90;;;;;;5009504;28;20028;-76
2022/06/11 03:43:36;;;;;;;5.10;3.30;;;12.60;99.90;;;;;;5021208;28;20022;-75
2022/06/11 03:46:03;;;;;;;5.68;3.60;;;12.80;99.90;;;;;;5021737;28;20029;-75
2022/06/11 03:48:29;;;;;;;4.88;3.63;;;12.60;99.90;;;;;;5027950;28;20022;-76
2022/06/11 03:50:57;;;;;;;4.00;3.60;;;12.70;99.90;;;;;;5015316;28;20069;-78
2022/06/11 03:53:25;;;;;;;3.75;3.10;;;12.50;99.90;;;;;;5005064;28;20024;-78
2022/06/11 03:55:50;;;;;;;5.07;3.50;;;12.70;99.90;;;;;;5005226;28;20033;-77
2022/06/11 03:58:18;;;;;;;5.97;3.60;;;12.90;99.90;;;;;;5003871;28;20029;-77
2022/06/11 04:03:30;;;;;;;6.13;3.70;;;13.00;99.90;;;;;;5024574;28;20163;-76
2022/06/11 04:05:56;;;;;;;4.15;3.75;;;13.20;99.90;;;;;;5003066;28;20022;-76
2022/06/11 04:08:24;;;;;;;3.75;3.30;;;13.20;99.90;;;;;;5034173;28;20132;-75
2022/06/11 04:10:52;;;;;;;3.75;3.45;;;13.20;99.90;;;;;;5021925;28;20036;-77
2022/06/11 04:13:19;;;;;;;3.80;3.40;;;13.40;99.90;;;;;;5025442;28;20025;-77
2022/06/11 04:15:46;;;;;;;4.35;3.95;;;13.10;99.90;;;;;;5018542;28;20025;-76
2022/06/11 04:18:36;;;;;;;4.97;3.50;;;13.20;99.90;;;;;;5005022;28;20038;-75
2022/06/11 04:21:06;;;;;;;5.25;3.85;;;13.40;99.90;;;;;;5009985;28;20021;-78
2022/06/11 04:23:32;;;;;;;4.88;3.80;;;13.40;99.90;;;;;;5005335;28;20480;-77
2022/06/11 04:26:00;;;;;;;4.57;3.90;;;13.40;99.90;;;;;;5008465;28;20029;-77
2022/06/11 04:28:28;;;;;;;4.50;3.65;;;13.20;99.90;;;;;;5011080;28;20057;-77
2022/06/11 04:30:54;;;;;;;4.22;3.80;;;13.10;99.90;;;;;;5007547;28;20025;-79
2022/06/11 04:33:20;;;;;;;4.82;3.90;;;12.80;99.90;;;;;;5003829;28;20030;-77
2022/06/11 04:35:47;;;;;;;3.80;3.42;;;13.00;99.90;;;;;;5023843;28;20026;-78
2022/06/11 04:38:13;;;;;;;5.90;4.00;;;13.10;99.90;;;;;;5027028;28;20033;-77
2022/06/11 04:40:38;;;;;;;4.07;3.70;;;13.30;99.90;;;;;;5024323;28;20365;-78
2022/06/11 04:43:04;;;;;;;4.45;3.90;;;13.40;99.90;;;;;;5000752;28;20030;-77
2022/06/11 04:45:30;;;;;;;5.70;4.00;;;13.40;99.90;;;;;;5022883;28;20032;-77
2022/06/11 04:47:55;;;;;;;5.53;4.03;;;13.40;99.90;;;;;;5020259;28;20519;-78
2022/06/11 04:50:22;;;;;;;4.78;3.78;;;13.80;99.90;;;;;;5023661;28;20176;-77
2022/06/11 04:52:48;;;;;;;4.32;3.70;;;13.90;99.90;;;;;;4995816;28;20028;-76
2022/06/11 04:55:14;;;;;;;4.88;3.80;;;13.70;99.90;;;;;;5022201;28;20029;-77
2022/06/11 04:57:41;;;;;;;4.90;3.80;;;13.80;99.90;;;;;;5020535;28;20400;-78
2022/06/11 05:00:08;;;;;;;5.50;3.45;;;13.80;99.90;;;;;;5024716;28;20092;-76
2022/06/11 05:02:34;;;;;;;4.65;3.67;;;13.90;99.90;;;;;;5026900;28;20025;-77
2022/06/11 05:04:59;;;;;;;5.72;3.75;;;14.20;99.90;;;;;;5014076;28;20030;-77
2022/06/11 05:07:25;;;;;;;5.18;3.70;;;14.00;99.90;;;;;;5013556;28;20033;-77
2022/06/11 05:09:51;;;;;;;6.75;4.00;;;14.00;99.90;;;;;;5021808;28;20479;-76
2022/06/11 05:12:16;;;;;;;4.20;3.80;;;14.30;99.90;;;;;;5017457;28;20025;-77
2022/06/11 05:14:42;;;;;;;6.03;3.88;;;14.30;99.90;;;;;;5006245;28;20064;-77
2022/06/11 05:17:08;;;;;;;5.43;4.10;;;14.40;99.90;;;;;;5026512;28;20472;-77
2022/06/11 05:19:34;;;;;;;5.82;5.28;;;14.30;99.90;;;;;;5004833;28;20513;-77
2022/06/11 05:22:00;;;;;;;5.57;4.97;;;14.30;99.90;;;;;;5029975;28;20108;-78
2022/06/11 05:24:26;;;;;;;7.47;4.88;;;14.10;99.90;;;;;;4995494;28;20025;-77
2022/06/11 05:27:06;;;;;;;5.63;4.53;;;14.10;99.90;;;;;;5028358;28;20026;-77
2022/06/11 05:29:48;;;;;;;4.90;4.05;;;14.50;99.90;;;;;;5027575;28;20021;-77
2022/06/11 05:32:16;;;;;;;5.57;3.88;;;14.50;99.90;;;;;;5009568;28;20029;-77
2022/06/11 05:34:42;;;;;;;5.35;4.28;;;14.70;99.90;;;;;;5023484;28;20033;-77
2022/06/11 05:37:09;;;;;;;5.68;4.60;;;14.70;99.90;;;;;;5005057;28;20475;-77
2022/06/11 05:39:35;;;;;;;5.93;4.50;;;14.60;99.90;;;;;;5023612;28;20377;-77
2022/06/11 05:42:01;;;;;;;4.35;3.95;;;14.70;99.90;;;;;;5026108;28;20101;-77
2022/06/11 05:44:26;;;;;;;6.72;4.20;;;15.00;99.90;;;;;;5026609;28;20036;-77
2022/06/11 05:46:53;;;;;;;5.00;4.20;;;15.00;99.90;;;;;;5020521;28;20384;-77
2022/06/11 05:49:24;;;;;;;6.40;4.20;;;15.00;99.90;;;;;;5018188;28;20088;-77
2022/06/11 05:51:54;;;;;;;5.38;3.90;;;15.20;99.90;;;;;;5003011;28;20032;-77
2022/06/11 05:54:25;;;;;;;5.32;4.20;;;15.00;99.90;;;;;;5019600;28;20037;-77
2022/06/11 05:56:51;;;;;;;5.07;4.45;;;15.20;99.90;;;;;;5023638;28;20365;-77
2022/06/11 05:59:25;;;;;;;6.45;4.35;;;15.30;99.90;;;;;;5008520;28;20053;-77
2022/06/11 06:01:53;;;;;;;6.97;4.25;;;15.30;99.90;;;;;;5030956;28;20060;-77
2022/06/11 06:04:18;;;;;;;7.35;4.13;;;15.50;99.90;;;;;;5002141;28;20067;-77
2022/06/11 06:06:44;;;;;;;4.82;4.32;;;15.60;99.90;;;;;;5020272;28;20026;-77
2022/06/11 06:09:09;;;;;;;5.55;3.97;;;15.50;99.90;;;;;;5018537;28;20506;-78
2022/06/11 06:11:35;;;;;;;4.65;4.13;;;15.70;99.90;;;;;;5020406;28;20030;-77
2022/06/11 06:14:01;;;;;;;5.07;3.78;;;15.90;99.90;;;;;;5025468;28;20129;-76
2022/06/11 06:16:29;;;;;;;7.47;4.32;;;15.80;99.90;;;;;;5022209;28;20428;-77
2022/06/11 06:18:56;;;;;;;6.25;4.25;;;16.00;99.90;;;;;;5000913;28;20414;-76
2022/06/11 06:21:24;;;;;;;5.00;3.80;;;16.00;99.90;;;;;;5020469;28;20026;-77
2022/06/11 06:23:51;;;;;;;3.95;3.65;;;16.00;99.90;;;;;;5025287;28;20490;-78
2022/06/11 06:26:17;;;;;;;5.25;4.53;;;16.20;99.90;;;;;;5005466;28;20021;-77
2022/06/11 06:28:43;;;;;;;5.68;4.32;;;16.30;99.90;;;;;;5013293;28;20030;-75
2022/06/11 06:31:11;;;;;;;6.03;4.45;;;16.50;99.90;;;;;;5011927;28;20075;-78
2022/06/11 06:33:37;;;;;;;6.38;4.50;;;16.80;99.90;;;;;;5007583;28;20030;-77
2022/06/11 06:36:05;;;;;;;6.07;4.50;;;16.80;99.90;;;;;;5006656;28;20026;-78
2022/06/11 06:38:31;;;;;;;5.50;4.32;;;16.60;99.90;;;;;;5022453;28;20423;-76
2022/06/11 06:40:57;;;;;;;5.13;4.03;;;16.90;99.90;;;;;;5006200;28;20022;-77
2022/06/11 06:43:23;;;;;;;6.47;3.72;;;16.80;99.90;;;;;;5029469;28;20373;-77
2022/06/11 06:45:49;;;;;;;8.20;4.18;;;16.90;99.90;;;;;;5018668;28;20381;-78
2022/06/11 06:48:15;;;;;;;8.32;4.43;;;17.30;99.90;;;;;;5028277;28;20018;-77
2022/06/11 06:50:40;;;;;;;5.95;4.43;;;17.50;99.90;;;;;;5020272;28;20014;-77
2022/06/11 06:53:06;;;;;;;5.25;4.15;;;17.70;99.90;;;;;;5025786;28;20017;-76
2022/06/11 06:55:32;;;;;;;7.22;4.10;;;17.40;99.90;;;;;;5019987;28;20069;-77
2022/06/11 06:57:58;;;;;;;7.15;4.40;;;17.60;99.90;;;;;;5003019;28;20025;-78
2022/06/11 07:00:23;;;;;;;6.88;4.07;;;17.60;99.90;;;;;;5019589;28;20022;-76
2022/06/11 07:02:52;;;;;;;6.90;4.38;;;17.50;99.90;;;;;;5028164;28;20025;-78
2022/06/11 07:05:17;;;;;;;7.57;4.05;;;17.60;99.90;;;;;;5008087;28;20025;-77
2022/06/11 07:07:44;;;;;;;9.88;4.55;;;17.70;99.90;;;;;;5007577;28;20021;-77
2022/06/11 07:10:10;;;;;;;8.40;4.22;;;17.90;99.90;;;;;;5021966;28;20083;-77
2022/06/11 07:12:35;;;;;;;6.03;4.47;;;18.30;99.90;;;;;;5018660;28;20514;-77
2022/06/11 07:15:02;;;;;;;7.22;4.22;;;18.70;99.90;;;;;;5031103;28;20053;-76
2022/06/11 07:17:39;;;;;;;5.30;3.80;;;19.00;99.90;;;;;;5012311;28;20481;-77
2022/06/11 07:20:10;;;;;;;6.60;3.90;;;19.30;99.90;;;;;;5024273;28;20040;-77
2022/06/11 07:22:41;;;;;;;6.07;3.85;;;19.10;99.90;;;;;;5005703;28;20062;-76
2022/06/11 07:25:08;;;;;;;4.28;3.60;;;19.00;99.90;;;;;;5016837;28;20022;-77
2022/06/11 07:27:39;;;;;;;7.68;3.90;;;19.20;99.90;;;;;;5020252;28;20025;-77
2022/06/11 07:30:11;;;;;;;7.60;3.80;;;19.30;99.90;;;;;;5001465;28;20034;-77
2022/06/11 07:32:38;;;;;;;6.28;3.40;;;19.30;99.90;;;;;;5005638;28;20022;-77
2022/06/11 07:35:05;;;;;;;3.83;3.17;;;19.40;99.90;;;;;;5016997;28;20025;-78
2022/06/11 07:37:34;;;;;;;4.20;3.25;;;19.20;99.90;;;;;;5025958;28;20021;-76
2022/06/11 07:39:59;;;;;;;6.20;3.28;;;19.40;99.90;;;;;;5022592;28;20030;-77
2022/06/11 07:42:25;;;;;;;3.78;3.10;;;19.50;99.90;;;;;;5022871;28;20137;-78
2022/06/11 07:44:51;;;;;;;5.90;3.50;;;19.50;99.90;;;;;;5014056;28;20044;-77
2022/06/11 07:47:53;;;;;;;4.15;2.97;;;20.00;99.90;;;;;;5015793;28;20388;-78
2022/06/11 07:50:03;;;;;;;3.63;2.80;;;20.30;99.90;;;;;;5021124;28;20025;-77
2022/06/11 07:52:29;;;;;;;4.82;2.88;;;20.20;99.90;;;;;;5003838;28;20164;-78
2022/06/11 07:54:54;;;;;;;3.10;2.78;;;20.10;99.90;;;;;;5030608;28;20480;-77
2022/06/11 07:57:20;;;;;;;4.03;2.60;;;20.20;99.90;;;;;;5011190;28;20034;-77
2022/06/11 07:59:46;;;;;;;3.60;2.45;;;20.30;99.90;;;;;;5020892;28;20036;-77
2022/06/11 08:02:11;;;;;;;6.18;2.70;;;20.50;99.90;;;;;;5021417;28;20045;-77
2022/06/11 08:04:37;;;;;;;4.03;2.92;;;20.90;99.90;;;;;;5027975;28;20030;-77
2022/06/11 08:07:03;;;;;;;6.15;2.88;;;21.10;99.90;;;;;;5027124;28;20059;-76
2022/06/11 08:09:28;;;;;;;6.25;2.85;;;21.20;99.90;;;;;;5020997;28;20033;-77
2022/06/11 08:11:54;;;;;;;4.55;2.45;;;21.10;99.90;;;;;;5020741;28;20017;-77
2022/06/11 08:14:19;;;;;;;4.07;3.00;;;21.20;99.90;;;;;;5027863;28;20036;-77
2022/06/11 08:16:45;;;;;;;3.45;2.35;;;21.20;99.90;;;;;;5009152;28;20180;-76
2022/06/11 08:19:11;;;;;;;7.68;2.80;;;21.40;99.90;;;;;;5010214;28;20025;-78
2022/06/11 08:21:37;;;;;;;3.58;2.08;;;21.30;99.90;;;;;;5026280;28;20029;-78
2022/06/11 08:24:03;;;;;;;2.45;2.00;;;21.20;99.90;;;;;;5020781;28;20132;-77
2022/06/11 08:26:28;;;;;;;4.05;2.20;;;21.60;99.90;;;;;;5022319;28;20018;-77
2022/06/11 08:28:54;;;;;;;4.82;2.38;;;21.70;99.90;;;;;;5028496;28;20030;-77
2022/06/11 08:31:19;;;;;;;4.10;2.40;;;21.80;99.90;;;;;;4997247;28;20026;-77
2022/06/11 08:33:45;;;;;;;2.70;2.10;;;21.40;99.90;;;;;;5010537;28;20072;-76
2022/06/11 08:36:10;;;;;;;4.88;2.28;;;21.40;99.90;;;;;;5025688;28;20057;-77
2022/06/11 08:38:36;;;;;;;6.72;2.13;;;21.50;99.90;;;;;;5018887;28;20052;-78
2022/06/11 08:41:02;;;;;;;3.70;2.20;;;21.60;99.90;;;;;;5021745;28;20033;-78
2022/06/11 08:43:35;;;;;;;3.00;2.67;;;22.00;99.90;;;;;;5032002;28;20079;-78
2022/06/11 08:46:12;;;;;;;3.63;2.30;;;22.30;99.90;;;;;;5021053;28;20057;-77
2022/06/11 08:49:04;;;;;;;3.72;2.00;;;22.40;99.90;;;;;;5008078;28;20029;-78
2022/06/11 08:51:39;;;;;;;5.38;2.30;;;22.00;99.90;;;;;;5002043;28;20112;-78
2022/06/11 08:54:10;;;;;;;4.65;2.17;;;22.40;99.90;;;;;;5021359;28;20033;-78
2022/06/11 08:56:49;;;;;;;4.32;2.03;;;22.20;99.90;;;;;;5026609;28;20052;-76
2022/06/11 08:59:20;;;;;;;2.58;1.92;;;22.20;99.90;;;;;;5026509;28;20462;-77
2022/06/11 09:01:57;;;;;;;2.60;1.80;;;22.40;99.90;;;;;;5022293;28;20434;-78
2022/06/11 09:04:47;;;;;;;1.90;1.70;;;22.10;99.90;;;;;;5027246;28;20014;-78
2022/06/11 09:07:25;;;;;;;3.38;1.63;;;22.40;99.90;;;;;;5038841;28;20428;-78
2022/06/11 09:09:58;;;;;;;3.95;1.83;;;22.50;99.90;;;;;;5034966;28;20033;-77
2022/06/11 09:12:47;;;;;;;4.07;2.00;;;22.50;99.90;;;;;;5037892;28;20037;-78
2022/06/11 09:15:34;;;;;;;3.70;2.10;;;22.40;99.90;;;;;;5022691;28;20026;-78
2022/06/11 09:18:24;;;;;;;6.63;2.22;;;22.50;99.90;;;;;;5022705;28;20029;-78
2022/06/11 09:21:07;;;;;;;5.70;2.20;;;22.80;99.90;;;;;;5024053;28;20037;-78
2022/06/11 09:23:52;;;;;;;5.05;2.60;;;22.80;99.90;;;;;;5019985;28;20028;-77
2022/06/11 09:26:44;;;;;;;3.90;2.03;;;22.80;99.90;;;;;;5025501;28;20014;-78
2022/06/11 09:29:31;;;;;;;3.55;2.03;;;23.50;99.90;;;;;;5014780;28;20084;-78
2022/06/11 09:32:09;;;;;;;3.90;1.88;;;23.90;99.90;;;;;;5002164;28;20544;-77
2022/06/11 09:34:46;;;;;;;4.35;1.90;;;23.70;99.90;;;;;;5002873;28;20033;-78
2022/06/11 09:37:23;;;;;;;4.18;1.92;;;23.30;99.90;;;;;;4992644;28;20047;-78
2022/06/11 09:40:38;;;;;;;4.38;1.52;;;23.30;99.90;;;;;;5002119;28;20099;-77
2022/06/11 09:43:09;;;;;;;6.43;2.10;;;23.50;99.90;;;;;;4976819;28;20474;-77
2022/06/11 09:45:39;;;;;;;4.07;1.98;;;23.90;99.90;;;;;;5006048;28;20026;-77
2022/06/11 09:48:30;;;;;;;4.47;2.10;;;24.60;99.90;;;;;;5026854;28;20193;-77
2022/06/11 09:51:14;;;;;;;4.03;2.20;;;24.20;99.90;;;;;;5026517;28;20021;-77
2022/06/11 09:53:57;;;;;;;3.40;2.17;;;23.70;99.90;;;;;;5005838;28;20018;-77
2022/06/11 09:56:44;;;;;;;5.35;2.40;;;23.40;99.90;;;;;;5002772;28;20120;-77
2022/06/11 09:59:30;;;;;;;3.85;2.30;;;23.70;99.90;;;;;;5019215;28;20034;-77
2022/06/11 10:02:10;;;;;;;5.40;2.35;;;24.10;99.90;;;;;;5021451;28;20022;-78
2022/06/11 10:04:40;;;;;;;3.20;2.40;;;24.20;99.90;;;;;;5002605;28;20029;-77
2022/06/11 10:07:14;;;;;;;2.92;2.28;;;24.90;99.90;;;;;;5032736;28;20516;-77
2022/06/11 10:09:54;;;;;;;4.22;2.42;;;24.80;99.90;;;;;;5013058;28;20026;-77
2022/06/11 10:12:23;;;;;;;2.85;2.22;;;25.00;99.90;;;;;;5007968;28;20026;-78
2022/06/11 10:14:52;;;;;;;5.07;2.20;;;25.40;99.90;;;;;;5025355;28;20033;-78
2022/06/11 10:17:52;;;;;;;4.07;2.05;;;25.80;99.90;;;;;;5041398;28;20025;-77
2022/06/11 10:20:27;;;;;;;6.03;2.40;;;25.20;99.90;;;;;;5010971;28;20018;-78
2022/06/11 10:23:25;;;;;;;5.68;2.47;;;25.20;99.90;;;;;;5024694;28;20076;-78
2022/06/11 10:26:15;;;;;;;5.70;2.75;;;25.00;99.90;;;;;;5014712;28;20029;-78
2022/06/11 10:28:50;;;;;;;5.13;2.17;;;25.20;99.90;;;;;;5011839;28;20499;-77
2022/06/11 10:31:32;;;;;;;4.95;2.22;;;25.20;99.90;;;;;;5013770;28;20034;-78
2022/06/11 10:34:10;;;;;;;4.97;2.28;;;24.40;99.90;;;;;;5010758;28;20081;-78
2022/06/11 10:36:59;;;;;;;5.70;2.17;;;25.10;99.90;;;;;;5036152;28;20088;-78
2022/06/11 10:39:42;;;;;;;8.18;2.20;;;25.60;99.90;;;;;;5019891;28;20037;-77
2022/06/11 10:42:17;;;;;;;4.95;1.92;;;25.50;99.90;;;;;;5007677;28;20061;-77
2022/06/11 10:44:51;;;;;;;4.83;2.00;;;25.60;99.90;;;;;;5017238;28;20028;-78
2022/06/11 10:47:29;;;;;;;5.22;2.25;;;25.10;99.90;;;;;;5013180;28;20014;-77
2022/06/11 10:50:03;;;;;;;3.88;2.00;;;24.70;99.90;;;;;;5026411;28;20030;-78
2022/06/11 10:52:42;;;;;;;2.60;2.00;;;24.60;99.90;;;;;;4996154;28;20022;-76
2022/06/11 10:55:13;;;;;;;6.57;2.28;;;25.50;99.90;;;;;;5006935;28;20034;-78
2022/06/11 10:57:40;;;;;;;4.63;1.70;;;25.60;99.90;;;;;;5031663;28;20029;-77
2022/06/11 11:00:36;;;;;;;3.53;1.90;;;25.30;99.90;;;;;;5009028;28;20029;-79
2022/06/11 11:03:14;;;;;;;4.28;2.25;;;25.70;99.90;;;;;;5025969;28;20053;-79
2022/06/11 11:05:45;;;;;;;5.32;2.17;;;25.10;99.90;;;;;;5022258;28;20366;-78
2022/06/11 11:08:12;;;;;;;3.88;2.30;;;24.70;99.90;;;;;;5027947;28;20030;-77
2022/06/11 11:10:59;;;;;;;4.18;2.30;;;24.40;99.90;;;;;;5001369;28;20022;-77
2022/06/11 11:13:34;;;;;;;4.22;2.10;;;24.00;99.90;;;;;;5008682;28;20022;-77
2022/06/11 11:16:12;;;;;;;6.10;2.63;;;24.80;99.90;;;;;;5015112;28;20312;-78
2022/06/11 11:19:19;;;;;;;5.10;2.22;;;25.40;99.90;;;;;;5031799;28;20502;-78
2022/06/11 11:21:55;;;;;;;4.03;2.00;;;26.00;99.90;;;;;;5029867;28;20034;-78
2022/06/11 11:24:51;;;;;;;4.10;1.90;;;26.30;99.90;;;;;;5024230;28;20026;-78
2022/06/11 11:27:18;;;;;;;2.47;1.85;;;27.20;99.90;;;;;;5044733;28;20369;-78
2022/06/11 11:29:52;;;;;;;5.65;2.05;;;27.40;99.90;;;;;;5031510;28;20046;-78
2022/06/11 11:32:38;;;;;;;3.95;2.00;;;26.40;99.70;;;;;;5016796;28;20029;-78
2022/06/11 11:35:15;;;;;;;3.22;1.88;;;26.20;99.90;;;;;;5028739;28;20029;-78
2022/06/11 11:37:41;;;;;;;3.20;2.00;;;26.10;99.90;;;;;;5025993;28;20025;-78
2022/06/11 11:40:30;;;;;;;2.92;2.10;;;26.00;99.90;;;;;;5021216;28;20036;-78
2022/06/11 11:42:58;;;;;;;2.72;2.35;;;25.40;99.90;;;;;;5021634;28;20045;-78
2022/06/11 11:45:40;;;;;;;3.47;1.88;;;26.80;99.70;;;;;;5009371;28;20026;-77
2022/06/11 11:48:11;;;;;;;4.43;1.98;;;27.60;99.30;;;;;;4998432;28;20028;-77
2022/06/11 11:50:40;;;;;;;3.40;2.03;;;28.10;98.80;;;;;;5006476;28;20022;-77
2022/06/11 11:53:20;;;;;;;4.57;2.00;;;27.00;99.90;;;;;;5010911;28;20080;-77
2022/06/11 11:55:55;;;;;;;5.38;2.00;;;25.50;99.90;;;;;;5011013;28;20036;-77
2022/06/11 11:58:37;;;;;;;4.83;2.10;;;25.30;99.90;;;;;;5007109;28;20018;-78
2022/06/11 12:01:08;;;;;;;2.97;2.03;;;25.10;99.90;;;;;;5031335;28;20021;-78
2022/06/11 12:03:45;;;;;;;4.03;2.50;;;25.10;99.90;;;;;;5038733;28;20042;-78
2022/06/11 12:06:16;;;;;;;5.95;2.20;;;24.80;99.90;;;;;;5041102;28;20484;-78
2022/06/11 12:08:49;;;;;;;3.80;2.05;;;24.60;99.90;;;;;;5042947;28;20041;-78
2022/06/11 12:11:23;;;;;;;7.60;2.20;;;25.00;99.90;;;;;;5028659;28;20022;-78
2022/06/11 12:14:01;;;;;;;3.53;2.00;;;24.80;99.90;;;;;;5029184;28;20033;-78
2022/06/11 12:16:48;;;;;;;3.78;1.95;;;24.70;99.90;;;;;;5015780;28;20022;-76
2022/06/11 12:19:28;;;;;;;2.15;1.75;;;25.00;99.70;;;;;;5027425;28;20034;-78
2022/06/11 12:22:02;;;;;;;2.97;2.05;;;24.90;99.90;;;;;;5027021;28;20029;-78
2022/06/11 12:24:37;;;;;;;5.32;1.95;;;25.20;99.90;;;;;;5025417;28;20021;-78
2022/06/11 12:27:24;;;;;;;4.13;2.22;;;25.30;99.60;;;;;;5022575;28;20021;-77
2022/06/11 12:30:04;;;;;;;4.30;2.47;;;25.30;99.90;;;;;;5022169;28;20484;-79
2022/06/11 12:32:32;;;;;;;3.55;2.35;;;25.50;99.70;;;;;;5009659;28;20037;-78
2022/06/11 12:35:00;;;;;;;4.10;2.33;;;25.30;99.70;;;;;;5010724;28;20033;-78
2022/06/11 12:37:47;;;;;;;4.72;2.05;;;26.60;99.50;;;;;;5028731;28;20098;-78
2022/06/11 12:40:26;;;;;;;2.28;1.67;;;27.20;98.60;;;;;;5017755;28;20026;-77
2022/06/11 12:43:13;;;;;;;3.80;2.10;;;26.00;98.60;;;;;;5029303;28;20487;-78
2022/06/11 12:45:44;;;;;;;2.63;1.80;;;25.70;99.80;;;;;;5016076;28;20025;-79
2022/06/11 12:48:28;;;;;;;3.97;2.45;;;25.50;99.90;;;;;;5010738;28;20033;-77
2022/06/11 12:51:16;;;;;;;3.33;1.90;;;25.30;99.80;;;;;;5018569;28;20021;-78
2022/06/11 12:53:58;;;;;;;6.85;1.88;;;25.50;99.40;;;;;;5037886;28;20018;-77
2022/06/11 12:57:01;;;;;;;7.03;2.70;;;25.50;99.60;;;;;;5028934;28;20022;-78
2022/06/11 12:59:44;;;;;;;3.83;2.10;;;26.60;98.50;;;;;;5032022;28;20025;-78
2022/06/11 13:02:28;;;;;;;2.95;1.88;;;26.60;98.70;;;;;;5025058;28;20046;-78
2022/06/11 13:05:12;;;;;;;6.25;1.80;;;26.00;97.60;;;;;;4998834;28;20041;-78
2022/06/11 13:08:01;;;;;;;4.38;2.33;;;25.90;98.00;;;;;;5007472;28;20017;-78
2022/06/11 13:10:33;;;;;;;3.33;1.92;;;26.10;98.10;;;;;;5020764;28;20088;-77
2022/06/11 13:13:22;;;;;;;4.20;1.83;;;25.70;98.40;;;;;;5009035;28;20026;-79
2022/06/11 13:16:09;;;;;;;2.65;1.90;;;25.70;97.50;;;;;;5019630;28;20025;-78
2022/06/11 13:18:43;;;;;;;4.25;2.20;;;25.50;97.60;;;;;;5003666;28;20084;-78
2022/06/11 13:21:25;;;;;;;4.80;2.58;;;27.70;97.60;;;;;;5024838;28;20038;-78